Vandenberg Air Force Base
KVBG : now visible

Airfield :











YOU CAN JOIN US ON...

 
LOGIN :

Register | Disclaimer

   EN    FR    IT 

 









Legend :    VFR   Marginal VFR   IFR   Intensive IFR   Very Intensive IFR
Visi :
Ceiling :
>= 8 km
>= 3000ft
5 to 8 km
1000 to 3000 ft
1500m to 5 km
500 to 1000 ft
800 to 1500m
200 to 500 ft
< 800m
< 200 ft
Symbols :   Thunderstorms  Fog  Heavy snow  Heavy precipitations  Wind > 20 kt






- Airport Elevation : 369 ft


KVBG - Vandenberg Air Force Base

CURRENT METAR :
  • 040830Z AUTO 17008KT 7SM -RA BKN007 OVC012 14/14 A3007 RMK AO2 RAE16RAB25 CIG 006V009 SLP185 TSNO $

EXPIRED METARs :
  • 040816Z AUTO 18009KT 8SM BKN006 OVC012 14/14 A3007 RMK AO2 RAE16 CIG 006V014 BKN V SCT SLP185 TSNO $
  • 040800Z AUTO 18009KT 8SM -RA BKN006 OVC014 15/14 A3007 RMK AO2 CIG 006V008 SLP185 TSNO $
  • 040744Z AUTO 18010KT 9SM BKN008 BKN014 OVC020 15/14 A3007 RMK AO2 RAE29 CIG 008V014 SLP185 TSNO $
  • 040729Z AUTO 18009KT 8SM SCT007 BKN014 BKN018 BKN028 OVC038 15/14 A3007 RMK AO2 RAE29 CIG 006V014 SLP185 TSNO $
  • 040725Z AUTO 18009KT 7SM -RA BKN006 BKN012 BKN028 OVC038 15/14 A3007 RMK AO2 CIG 006V011 BKN006 V SCT SLP185 TSNO $
  • 040655Z AUTO 19011KT 7SM -RA FEW006 BKN011 BKN017 OVC045 15/14 A3007 RMK AO2 RAB15 CIG 011V048 SLP185 P0002 T01490143 TSNO $
  • 040615Z AUTO 18014KT 10SM -RA SCT026 BKN032 OVC048 15/14 A3006 RMK AO2 RAB15 SLP182 TSNO $
  • 040605Z AUTO 19013KT 10SM BKN028 BKN045 OVC055 15/14 A3006 RMK AO2 CIG 026V043 SLP182 TSNO $
  • 040555Z AUTO 18013KT 10SM FEW015 SCT026 BKN032 BKN042 OVC055 15/15 A3006 RMK AO2 RAB31E40 SLP182 P0000 60001 T01530145 10159 20146 52004 TSNO $
  • 040545Z AUTO 18012KT 10SM CLR 15/14 A3006 RMK AO2 RAB31E40 SLP182 TSNO $

Expired Forecast.
KZLA FIR / North America



MET'MAP, your aeronautical weather chart ! - Copyright ORBIFLY December 2007 - Disclaimer

ORBIFLY MET'MAP TEAM :

Programming & Development : Alexandra Zaïnal
Original concept : Baudouin d'Aumeries
Technical & hardware support : Manuel Goepfert
Assistance : Marc-Olivier Méhu




SOURCES & CREDITS :

   NOAA       Earth
Advisory